»·PEaware :: N15JG KNYL-KONT

N15JG :: KNYL-KONT

FLIGHT INFORMATION

Flight Status: Arrived
Operator: Privately registered:
United States
More flights under this callsign
Pilot: Anonymous 11047 (11047)
Aircraft: CIRRUS SR-22 TURBO
(S22T)
More flights by this aircraft type
Origin: KNYL Yuma MCAS/Yuma Intl
United States
Destination: KONT Ontario Intl
United States
More flights between these airports :: More routes between these airports
Route: BZA IPL TRM PSP
File this flight plan on PilotEdge
Remarks: Alphabet Challenge
Altitude:
(Current/Filed)
6,500ft
Speed:
(Current/Filed)
170kts
Departed: 20-Nov-16 10:46 AM
Arrived: 20-Nov-16 11:57 AM
Distance/Time
Traveled:
172nm/1:10
Distance/Time
To Go:
Arrived

Flight Plot

Page will automatically refresh every two minutes.

Flight plan parsing failed; only flown route is shown


Map Options




Map Legend


Flown Route
Filed Route
Departure Airport
Arrival Airport
Navaid (VOR, NDB)
Fix

Horizontal Profiles

Position Reports

Time Latitude Longitude Heading Altitude Ground
Speed
20-Nov-16 10:07 32.658046 -114.610253 180 220ft 0kts
20-Nov-16 10:08 32.658039 -114.610253 180 220ft 0kts
20-Nov-16 10:11 32.658036 -114.610253 180 220ft 0kts
20-Nov-16 10:13 32.658034 -114.610253 180 220ft 0kts
20-Nov-16 10:14 32.658033 -114.610253 180 220ft 0kts
20-Nov-16 10:15 32.658032 -114.610253 180 220ft 0kts
20-Nov-16 10:18 32.658028 -114.610253 180 220ft 0kts
20-Nov-16 10:19 32.658027 -114.610253 180 220ft 0kts
20-Nov-16 10:20 32.658026 -114.610253 180 220ft 0kts
20-Nov-16 10:20 32.658026 -114.610253 180 220ft 0kts
20-Nov-16 10:20 32.658025 -114.610253 180 220ft 0kts
20-Nov-16 10:21 32.658024 -114.610253 180 220ft 0kts
20-Nov-16 10:25 32.658020 -114.610253 180 220ft 0kts
20-Nov-16 10:26 32.658019 -114.610253 180 220ft 0kts
20-Nov-16 10:27 32.658017 -114.610253 180 220ft 0kts
20-Nov-16 10:29 32.657905 -114.609787 56 220ft 5kts
20-Nov-16 10:31 32.660927 -114.605467 357 220ft 16kts
20-Nov-16 10:31 32.660927 -114.605467 357 220ft 16kts
20-Nov-16 10:33 32.667201 -114.605173 91 220ft 0kts
20-Nov-16 10:36 32.667201 -114.605167 91 220ft 0kts
20-Nov-16 10:36 32.667201 -114.605166 91 220ft 0kts
20-Nov-16 10:39 32.666625 -114.604034 177 220ft 24kts
20-Nov-16 10:40 32.618545 -114.602569 175 1976ft 111kts
20-Nov-16 10:41 32.597531 -114.600815 172 2924ft 116kts
20-Nov-16 10:42 32.554985 -114.594332 198 3968ft 144kts
20-Nov-16 10:43 32.555954 -114.623124 338 4096ft 186kts
20-Nov-16 10:46 32.708799 -114.604859 354 5230ft 183kts
20-Nov-16 10:47 32.757517 -114.617671 306 5423ft 186kts
20-Nov-16 10:48 32.770103 -114.670663 274 6364ft 161kts
20-Nov-16 10:50 32.776954 -114.790928 267 6533ft 167kts
20-Nov-16 10:53 32.769090 -114.930327 265 6541ft 167kts
20-Nov-16 10:54 32.768670 -114.985648 260 6727ft 167kts
20-Nov-16 10:54 32.766499 -115.024132 268 6711ft 187kts
20-Nov-16 10:55 32.768700 -115.074467 266 6625ft 184kts
20-Nov-16 10:57 32.764232 -115.202826 257 6379ft 174kts
20-Nov-16 10:59 32.757136 -115.317916 268 5882ft 170kts
20-Nov-16 11:01 32.752532 -115.408665 268 5926ft 166kts
20-Nov-16 11:02 32.754692 -115.491437 266 6251ft 162kts
20-Nov-16 11:04 32.794551 -115.553110 335 6595ft 183kts
20-Nov-16 11:05 32.850817 -115.581074 329 6504ft 189kts
20-Nov-16 11:06 32.912029 -115.620986 326 6487ft 186kts
20-Nov-16 11:07 32.951990 -115.642629 330 6600ft 189kts
20-Nov-16 11:09 33.018448 -115.692428 323 6595ft 189kts
20-Nov-16 11:09 33.048880 -115.713842 327 6681ft 188kts
20-Nov-16 11:14 33.231246 -115.861328 323 6376ft 186kts
20-Nov-16 11:14 33.259772 -115.884590 324 6373ft 185kts
20-Nov-16 11:15 33.289014 -115.905822 326 6385ft 187kts
20-Nov-16 11:20 33.521017 -116.079664 325 6542ft 185kts
20-Nov-16 11:21 33.558499 -116.105179 322 6532ft 185kts
20-Nov-16 11:22 33.586160 -116.129346 324 6534ft 185kts
20-Nov-16 11:26 33.746803 -116.296662 313 6479ft 185kts
20-Nov-16 11:27 33.798791 -116.350317 302 6731ft 183kts
20-Nov-16 11:28 33.818330 -116.383728 301 6757ft 185kts
20-Nov-16 11:29 33.851504 -116.418732 320 6599ft 192kts
20-Nov-16 11:30 33.881053 -116.454842 284 6607ft 187kts
20-Nov-16 11:31 33.896282 -116.511508 285 6567ft 175kts
20-Nov-16 11:31 33.902082 -116.550787 271 6696ft 174kts
20-Nov-16 11:34 33.917309 -116.706954 278 6802ft 181kts
20-Nov-16 11:36 33.929236 -116.789346 274 6911ft 180kts
20-Nov-16 11:38 33.957456 -116.948084 275 6415ft 178kts
20-Nov-16 11:41 33.977926 -117.126185 267 5734ft 180kts
20-Nov-16 11:44 34.013632 -117.302186 279 4258ft 188kts
20-Nov-16 11:45 34.020310 -117.362359 273 3845ft 178kts
20-Nov-16 11:47 34.047233 -117.481005 308 2975ft 136kts
20-Nov-16 11:50 34.056753 -117.565735 272 1300ft 82kts
20-Nov-16 11:51 34.056830 -117.586650 273 952ft 65kts
20-Nov-16 11:51 34.056999 -117.595688 267 948ft 18kts
20-Nov-16 11:52 34.057764 -117.595786 359 948ft 0kts
20-Nov-16 11:54 34.059874 -117.595712 1 948ft 0kts
20-Nov-16 11:54 34.059874 -117.595712 1 948ft 0kts

Navigation Log

Ident Type
Flight plan parsing failed, navigation log unavailable